sensor_id;sensor_type;location;lat;lon;timestamp;pressure;altitude;pressure_sealevel;temperature
66113;BMP280;52893;52.870;5.822;2023-04-25T00:00:13;100936.88;;;8.00
66113;BMP280;52893;52.870;5.822;2023-04-25T00:02:41;100942.31;;;8.00
66113;BMP280;52893;52.870;5.822;2023-04-25T00:05:09;100929.81;;;7.99
66113;BMP280;52893;52.870;5.822;2023-04-25T00:07:38;100937.97;;;7.99
66113;BMP280;52893;52.870;5.822;2023-04-25T00:10:06;100935.59;;;7.98
66113;BMP280;52893;52.870;5.822;2023-04-25T00:12:34;100939.41;;;7.97
66113;BMP280;52893;52.870;5.822;2023-04-25T00:15:01;100936.69;;;7.97
66113;BMP280;52893;52.870;5.822;2023-04-25T00:17:31;100931.53;;;7.95
66113;BMP280;52893;52.870;5.822;2023-04-25T00:19:58;100935.06;;;7.96
66113;BMP280;52893;52.870;5.822;2023-04-25T00:22:26;100946.22;;;7.94
66113;BMP280;52893;52.870;5.822;2023-04-25T00:24:53;100948.03;;;7.99
66113;BMP280;52893;52.870;5.822;2023-04-25T00:27:23;100944.72;;;8.02
66113;BMP280;52893;52.870;5.822;2023-04-25T00:29:50;100888.78;;;7.60
66113;BMP280;52893;52.870;5.822;2023-04-25T00:32:17;100968.59;;;8.05
66113;BMP280;52893;52.870;5.822;2023-04-25T00:34:46;100912.50;;;7.68
66113;BMP280;52893;52.870;5.822;2023-04-25T00:37:13;100968.06;;;8.03
66113;BMP280;52893;52.870;5.822;2023-04-25T00:39:41;100955.00;;;7.91
66113;BMP280;52893;52.870;5.822;2023-04-25T00:42:08;100970.69;;;7.94
66113;BMP280;52893;52.870;5.822;2023-04-25T00:44:36;100973.81;;;7.88
66113;BMP280;52893;52.870;5.822;2023-04-25T00:47:04;100970.88;;;7.84
66113;BMP280;52893;52.870;5.822;2023-04-25T00:49:32;100977.13;;;7.85
66113;BMP280;52893;52.870;5.822;2023-04-25T00:52:00;100916.50;;;7.43
66113;BMP280;52893;52.870;5.822;2023-04-25T00:54:28;100980.38;;;7.87
66113;BMP280;52893;52.870;5.822;2023-04-25T00:56:57;100986.28;;;7.89
66113;BMP280;52893;52.870;5.822;2023-04-25T00:59:25;100982.75;;;7.88
66113;BMP280;52893;52.870;5.822;2023-04-25T01:01:53;100986.00;;;7.90
66113;BMP280;52893;52.870;5.822;2023-04-25T01:04:21;100981.03;;;7.92
66113;BMP280;52893;52.870;5.822;2023-04-25T01:06:48;100981.56;;;7.94
66113;BMP280;52893;52.870;5.822;2023-04-25T01:09:17;100982.38;;;7.95
66113;BMP280;52893;52.870;5.822;2023-04-25T01:11:45;100987.81;;;7.95
66113;BMP280;52893;52.870;5.822;2023-04-25T01:14:13;100964.66;;;7.84
66113;BMP280;52893;52.870;5.822;2023-04-25T01:16:40;100991.63;;;7.94
66113;BMP280;52893;52.870;5.822;2023-04-25T01:19:09;100989.19;;;7.92
66113;BMP280;52893;52.870;5.822;2023-04-25T01:21:39;100991.63;;;7.94
66113;BMP280;52893;52.870;5.822;2023-04-25T01:24:07;100934.13;;;7.59
66113;BMP280;52893;52.870;5.822;2023-04-25T01:26:35;100990.91;;;8.02
66113;BMP280;52893;52.870;5.822;2023-04-25T01:29:04;100988.72;;;8.04
66113;BMP280;52893;52.870;5.822;2023-04-25T01:31:32;100989.22;;;8.06
66113;BMP280;52893;52.870;5.822;2023-04-25T01:34:00;100992.75;;;8.07
66113;BMP280;52893;52.870;5.822;2023-04-25T01:36:28;100997.69;;;8.04
66113;BMP280;52893;52.870;5.822;2023-04-25T01:38:58;100999.59;;;8.04
66113;BMP280;52893;52.870;5.822;2023-04-25T01:41:27;100996.88;;;8.04
66113;BMP280;52893;52.870;5.822;2023-04-25T01:43:54;100938.34;;;7.66
66113;BMP280;52893;52.870;5.822;2023-04-25T01:46:23;100982.97;;;7.92
66113;BMP280;52893;52.870;5.822;2023-04-25T01:48:51;100964.75;;;7.79
66113;BMP280;52893;52.870;5.822;2023-04-25T01:51:19;100985.19;;;7.90
66113;BMP280;52893;52.870;5.822;2023-04-25T01:53:46;101018.91;;;8.02
66113;BMP280;52893;52.870;5.822;2023-04-25T01:56:17;100911.16;;;7.38
66113;BMP280;52893;52.870;5.822;2023-04-25T01:58:45;100951.47;;;7.64
66113;BMP280;52893;52.870;5.822;2023-04-25T02:01:30;101010.56;;;7.99
66113;BMP280;52893;52.870;5.822;2023-04-25T02:04:15;100938.66;;;7.50
66113;BMP280;52893;52.870;5.822;2023-04-25T02:06:43;101016.00;;;7.99
66113;BMP280;52893;52.870;5.822;2023-04-25T02:09:11;101010.88;;;7.97
66113;BMP280;52893;52.870;5.822;2023-04-25T02:11:45;101017.72;;;7.95
66113;BMP280;52893;52.870;5.822;2023-04-25T02:14:39;101025.34;;;7.93
66113;BMP280;52893;52.870;5.822;2023-04-25T02:17:14;101022.63;;;7.93
66113;BMP280;52893;52.870;5.822;2023-04-25T02:19:41;101021.00;;;7.92
66113;BMP280;52893;52.870;5.822;2023-04-25T02:22:09;101019.41;;;7.91
66113;BMP280;52893;52.870;5.822;2023-04-25T02:24:36;101025.97;;;7.90
66113;BMP280;52893;52.870;5.822;2023-04-25T02:27:05;100991.59;;;7.67
66113;BMP280;52893;52.870;5.822;2023-04-25T02:29:35;101010.13;;;7.78
66113;BMP280;52893;52.870;5.822;2023-04-25T02:32:02;101032.69;;;7.92
66113;BMP280;52893;52.870;5.822;2023-04-25T02:34:29;100929.75;;;7.31
66113;BMP280;52893;52.870;5.822;2023-04-25T02:37:00;101033.50;;;7.93
66113;BMP280;52893;52.870;5.822;2023-04-25T02:39:28;101041.16;;;7.91
66113;BMP280;52893;52.870;5.822;2023-04-25T02:41:55;101016.47;;;7.74
66113;BMP280;52893;52.870;5.822;2023-04-25T02:44:24;101041.75;;;7.88
66113;BMP280;52893;52.870;5.822;2023-04-25T02:46:51;100987.75;;;7.54
66113;BMP280;52893;52.870;5.822;2023-04-25T02:49:19;100993.91;;;7.59
66113;BMP280;52893;52.870;5.822;2023-04-25T02:51:46;101035.91;;;7.81
66113;BMP280;52893;52.870;5.822;2023-04-25T02:54:14;101036.50;;;7.78
66113;BMP280;52893;52.870;5.822;2023-04-25T02:56:44;100939.84;;;7.12
66113;BMP280;52893;52.870;5.822;2023-04-25T02:59:18;101032.16;;;7.63
66113;BMP280;52893;52.870;5.822;2023-04-25T03:01:46;101038.88;;;7.66
66113;BMP280;52893;52.870;5.822;2023-04-25T03:04:14;101037.28;;;7.65
66113;BMP280;52893;52.870;5.822;2023-04-25T03:06:41;101043.84;;;7.64
66113;BMP280;52893;52.870;5.822;2023-04-25T03:09:08;101043.31;;;7.62
66113;BMP280;52893;52.870;5.822;2023-04-25T03:11:37;101019.91;;;7.47
66113;BMP280;52893;52.870;5.822;2023-04-25T03:14:05;101005.19;;;7.34
66113;BMP280;52893;52.870;5.822;2023-04-25T03:16:34;101033.19;;;7.48
66113;BMP280;52893;52.870;5.822;2023-04-25T03:19:03;101045.91;;;7.53
66113;BMP280;52893;52.870;5.822;2023-04-25T03:21:32;101055.66;;;7.54
66113;BMP280;52893;52.870;5.822;2023-04-25T03:24:01;101057.59;;;7.53
66113;BMP280;52893;52.870;5.822;2023-04-25T03:26:29;101051.34;;;7.53
66113;BMP280;52893;52.870;5.822;2023-04-25T03:28:56;101053.72;;;7.54
66113;BMP280;52893;52.870;5.822;2023-04-25T03:31:24;101023.88;;;7.36
66113;BMP280;52893;52.870;5.822;2023-04-25T03:33:52;101058.56;;;7.57
66113;BMP280;52893;52.870;5.822;2023-04-25T03:36:23;101042.41;;;7.52
66113;BMP280;52893;52.870;5.822;2023-04-25T03:38:50;101044.06;;;7.48
66113;BMP280;52893;52.870;5.822;2023-04-25T03:41:20;101068.88;;;7.60
66113;BMP280;52893;52.870;5.822;2023-04-25T03:43:52;101068.06;;;7.60
66113;BMP280;52893;52.870;5.822;2023-04-25T03:46:20;101065.06;;;7.62
66113;BMP280;52893;52.870;5.822;2023-04-25T03:48:48;101070.50;;;7.62
66113;BMP280;52893;52.870;5.822;2023-04-25T03:51:31;101067.25;;;7.59
66113;BMP280;52893;52.870;5.822;2023-04-25T03:54:00;101077.06;;;7.55
66113;BMP280;52893;52.870;5.822;2023-04-25T03:56:31;101078.50;;;7.53
66113;BMP280;52893;52.870;5.822;2023-04-25T03:59:08;101071.75;;;7.50
66113;BMP280;52893;52.870;5.822;2023-04-25T04:01:35;101079.09;;;7.50
66113;BMP280;52893;52.870;5.822;2023-04-25T04:04:03;101081.56;;;7.46
66113;BMP280;52893;52.870;5.822;2023-04-25T04:06:32;100954.41;;;6.65
66113;BMP280;52893;52.870;5.822;2023-04-25T04:09:11;101088.09;;;7.45
66113;BMP280;52893;52.870;5.822;2023-04-25T04:11:43;101086.50;;;7.44
66113;BMP280;52893;52.870;5.822;2023-04-25T04:14:11;101088.09;;;7.45
66113;BMP280;52893;52.870;5.822;2023-04-25T04:17:00;101084.56;;;7.45
66113;BMP280;52893;52.870;5.822;2023-04-25T04:19:35;101090.81;;;7.45
66113;BMP280;52893;52.870;5.822;2023-04-25T04:22:10;101095.16;;;7.46
66113;BMP280;52893;52.870;5.822;2023-04-25T04:24:39;101085.09;;;7.47
66113;BMP280;52893;52.870;5.822;2023-04-25T04:27:11;101089.16;;;7.49
66113;BMP280;52893;52.870;5.822;2023-04-25T04:29:47;101028.06;;;7.14
66113;BMP280;52893;52.870;5.822;2023-04-25T04:32:20;101088.91;;;7.46
66113;BMP280;52893;52.870;5.822;2023-04-25T04:34:49;101096.25;;;7.45
66113;BMP280;52893;52.870;5.822;2023-04-25T04:37:21;101099.59;;;7.42
66113;BMP280;52893;52.870;5.822;2023-04-25T04:39:49;101099.34;;;7.39
66113;BMP280;52893;52.870;5.822;2023-04-25T04:42:36;101100.75;;;7.36
66113;BMP280;52893;52.870;5.822;2023-04-25T04:45:30;101105.75;;;7.29
66113;BMP280;52893;52.870;5.822;2023-04-25T04:48:21;101109.03;;;7.26
66113;BMP280;52893;52.870;5.822;2023-04-25T04:51:16;101113.44;;;7.22
66113;BMP280;52893;52.870;5.822;2023-04-25T04:54:03;101105.44;;;7.12
66113;BMP280;52893;52.870;5.822;2023-04-25T04:57:03;101133.00;;;7.19
66113;BMP280;52893;52.870;5.822;2023-04-25T04:59:49;101134.94;;;7.18
66113;BMP280;52893;52.870;5.822;2023-04-25T05:02:45;101150.13;;;7.19
66113;BMP280;52893;52.870;5.822;2023-04-25T05:05:30;101145.88;;;7.13
66113;BMP280;52893;52.870;5.822;2023-04-25T05:08:32;101136.53;;;7.01
66113;BMP280;52893;52.870;5.822;2023-04-25T05:11:27;101151.72;;;7.02
66113;BMP280;52893;52.870;5.822;2023-04-25T05:14:13;101147.22;;;6.92
66113;BMP280;52893;52.870;5.822;2023-04-25T05:16:46;101162.63;;;6.97
66113;BMP280;52893;52.870;5.822;2023-04-25T05:19:24;101162.63;;;6.97
66113;BMP280;52893;52.870;5.822;2023-04-25T05:22:12;101168.06;;;6.97
66113;BMP280;52893;52.870;5.822;2023-04-25T05:24:54;101171.88;;;6.96
66113;BMP280;52893;52.870;5.822;2023-04-25T05:27:39;101170.25;;;6.95
66113;BMP280;52893;52.870;5.822;2023-04-25T05:30:15;101131.69;;;6.74
66113;BMP280;52893;52.870;5.822;2023-04-25T05:33:09;101168.34;;;6.95
66113;BMP280;52893;52.870;5.822;2023-04-25T05:35:37;101161.59;;;6.93
66113;BMP280;52893;52.870;5.822;2023-04-25T05:38:04;101159.47;;;6.90
66113;BMP280;52893;52.870;5.822;2023-04-25T05:40:56;101165.84;;;6.99
66113;BMP280;52893;52.870;5.822;2023-04-25T05:43:42;101172.38;;;6.98
66113;BMP280;52893;52.870;5.822;2023-04-25T05:46:42;101176.50;;;6.95
66113;BMP280;52893;52.870;5.822;2023-04-25T05:49:12;101143.91;;;6.71
66113;BMP280;52893;52.870;5.822;2023-04-25T05:51:58;101178.09;;;6.96
66113;BMP280;52893;52.870;5.822;2023-04-25T05:54:43;101185.00;;;7.07
66113;BMP280;52893;52.870;5.822;2023-04-25T05:57:19;101174.25;;;7.21
66113;BMP280;52893;52.870;5.822;2023-04-25T05:59:48;101181.38;;;7.36
66113;BMP280;52893;52.870;5.822;2023-04-25T06:02:17;101160.19;;;7.38
66113;BMP280;52893;52.870;5.822;2023-04-25T06:04:44;101173.13;;;7.65
66113;BMP280;52893;52.870;5.822;2023-04-25T07:29:33;101262.97;;;10.24
66113;BMP280;52893;52.870;5.822;2023-04-25T07:32:03;101271.28;;;10.27
66113;BMP280;52893;52.870;5.822;2023-04-25T07:34:30;101270.50;;;10.27
66113;BMP280;52893;52.870;5.822;2023-04-25T07:36:58;101279.00;;;10.25
66113;BMP280;52893;52.870;5.822;2023-04-25T07:39:29;101282.72;;;10.30
66113;BMP280;52893;52.870;5.822;2023-04-25T07:41:57;101284.44;;;10.25
66113;BMP280;52893;52.870;5.822;2023-04-25T07:44:29;101275.34;;;10.30
66113;BMP280;52893;52.870;5.822;2023-04-25T07:46:58;101288.28;;;10.24
66113;BMP280;52893;52.870;5.822;2023-04-25T07:49:26;101293.81;;;10.11
66113;BMP280;52893;52.870;5.822;2023-04-25T07:51:54;101295.59;;;9.93
66113;BMP280;52893;52.870;5.822;2023-04-25T07:54:21;101295.81;;;9.83
66113;BMP280;52893;52.870;5.822;2023-04-25T07:56:59;101299.41;;;9.70
66113;BMP280;52893;52.870;5.822;2023-04-25T07:59:29;101303.66;;;9.62
66113;BMP280;52893;52.870;5.822;2023-04-25T08:02:01;101309.69;;;9.73
66113;BMP280;52893;52.870;5.822;2023-04-25T08:04:29;101311.28;;;9.88
66113;BMP280;52893;52.870;5.822;2023-04-25T08:07:04;101313.94;;;10.01
66113;BMP280;52893;52.870;5.822;2023-04-25T08:09:40;101314.44;;;10.03
66113;BMP280;52893;52.870;5.822;2023-04-25T08:12:13;101309.66;;;10.09
66113;BMP280;52893;52.870;5.822;2023-04-25T08:14:41;101317.56;;;10.33
66113;BMP280;52893;52.870;5.822;2023-04-25T08:17:10;101331.31;;;10.50
66113;BMP280;52893;52.870;5.822;2023-04-25T08:19:40;101329.66;;;10.40
66113;BMP280;52893;52.870;5.822;2023-04-25T08:22:15;101348.44;;;10.19
66113;BMP280;52893;52.870;5.822;2023-04-25T08:24:52;101350.06;;;9.98
66113;BMP280;52893;52.870;5.822;2023-04-25T08:27:19;101351.38;;;9.87
66113;BMP280;52893;52.870;5.822;2023-04-25T08:29:47;101354.09;;;9.73
66113;BMP280;52893;52.870;5.822;2023-04-25T08:32:16;101358.66;;;9.64
66113;BMP280;52893;52.870;5.822;2023-04-25T08:34:57;101354.34;;;9.63
66113;BMP280;52893;52.870;5.822;2023-04-25T08:37:24;101349.06;;;9.67
66113;BMP280;52893;52.870;5.822;2023-04-25T08:40:00;101354.25;;;9.91
66113;BMP280;52893;52.870;5.822;2023-04-25T08:42:45;101355.22;;;10.22
66113;BMP280;52893;52.870;5.822;2023-04-25T08:45:14;101360.16;;;10.42
66113;BMP280;52893;52.870;5.822;2023-04-25T08:47:45;101370.25;;;10.55
66113;BMP280;52893;52.870;5.822;2023-04-25T08:50:14;101364.69;;;10.69
66113;BMP280;52893;52.870;5.822;2023-04-25T08:52:44;101362.09;;;10.95
66113;BMP280;52893;52.870;5.822;2023-04-25T08:55:12;101357.53;;;11.12
66113;BMP280;52893;52.870;5.822;2023-04-25T08:57:40;101364.38;;;11.41
66113;BMP280;52893;52.870;5.822;2023-04-25T09:00:09;101368.97;;;11.71
66113;BMP280;52893;52.870;5.822;2023-04-25T09:02:39;101364.16;;;11.85
66113;BMP280;52893;52.870;5.822;2023-04-25T09:05:09;101362.56;;;12.01
66113;BMP280;52893;52.870;5.822;2023-04-25T09:07:37;101364.66;;;12.22
66113;BMP280;52893;52.870;5.822;2023-04-25T09:10:05;101381.22;;;12.42
66113;BMP280;52893;52.870;5.822;2023-04-25T09:12:36;101388.38;;;12.73
66113;BMP280;52893;52.870;5.822;2023-04-25T09:15:08;101358.16;;;12.61
66113;BMP280;52893;52.870;5.822;2023-04-25T09:17:56;101395.78;;;12.72
66113;BMP280;52893;52.870;5.822;2023-04-25T09:20:29;101380.47;;;12.88
66113;BMP280;52893;52.870;5.822;2023-04-25T09:23:03;101395.81;;;13.19
66113;BMP280;52893;52.870;5.822;2023-04-25T09:25:36;101392.63;;;13.17
66113;BMP280;52893;52.870;5.822;2023-04-25T09:28:05;101395.50;;;13.12
66113;BMP280;52893;52.870;5.822;2023-04-25T09:30:34;101403.78;;;13.41
66113;BMP280;52893;52.870;5.822;2023-04-25T09:33:27;101397.53;;;13.61
66113;BMP280;52893;52.870;5.822;2023-04-25T09:36:01;101398.38;;;13.24
66113;BMP280;52893;52.870;5.822;2023-04-25T09:38:48;101415.66;;;12.78
66113;BMP280;52893;52.870;5.822;2023-04-25T09:41:23;101412.94;;;12.35
66113;BMP280;52893;52.870;5.822;2023-04-25T09:43:50;101440.97;;;12.06
66113;BMP280;52893;52.870;5.822;2023-04-25T09:46:18;101450.91;;;11.93
66113;BMP280;52893;52.870;5.822;2023-04-25T09:48:51;101470.28;;;11.66
66113;BMP280;52893;52.870;5.822;2023-04-25T09:51:27;101479.19;;;11.10
66113;BMP280;52893;52.870;5.822;2023-04-25T09:53:57;101493.56;;;10.57
66113;BMP280;52893;52.870;5.822;2023-04-25T09:56:43;101487.09;;;10.17
66113;BMP280;52893;52.870;5.822;2023-04-25T09:59:14;101485.59;;;9.84
66113;BMP280;52893;52.870;5.822;2023-04-25T10:01:43;101491.41;;;9.50
66113;BMP280;52893;52.870;5.822;2023-04-25T10:04:24;101489.34;;;9.28
66113;BMP280;52893;52.870;5.822;2023-04-25T10:06:59;101490.25;;;9.38
66113;BMP280;52893;52.870;5.822;2023-04-25T10:09:29;101490.72;;;9.72
66113;BMP280;52893;52.870;5.822;2023-04-25T10:11:58;101493.25;;;10.59
66113;BMP280;52893;52.870;5.822;2023-04-25T10:14:26;101483.41;;;11.47
66113;BMP280;52893;52.870;5.822;2023-04-25T10:16:53;101485.72;;;12.27
66113;BMP280;52893;52.870;5.822;2023-04-25T10:19:21;101492.84;;;12.71
66113;BMP280;52893;52.870;5.822;2023-04-25T10:21:51;101474.06;;;13.16
66113;BMP280;52893;52.870;5.822;2023-04-25T10:24:20;101477.84;;;13.70
66113;BMP280;52893;52.870;5.822;2023-04-25T10:26:48;101484.03;;;13.59
66113;BMP280;52893;52.870;5.822;2023-04-25T10:29:22;101477.41;;;13.22
66113;BMP280;52893;52.870;5.822;2023-04-25T10:31:49;101484.34;;;13.19
66113;BMP280;52893;52.870;5.822;2023-04-25T10:34:17;101480.72;;;13.44
66113;BMP280;52893;52.870;5.822;2023-04-25T10:36:49;101476.31;;;13.05
66113;BMP280;52893;52.870;5.822;2023-04-25T10:39:23;101482.16;;;13.04
66113;BMP280;52893;52.870;5.822;2023-04-25T10:41:56;101477.53;;;13.34
66113;BMP280;52893;52.870;5.822;2023-04-25T10:44:25;101466.97;;;13.53
66113;BMP280;52893;52.870;5.822;2023-04-25T10:46:54;101477.25;;;13.27
66113;BMP280;52893;52.870;5.822;2023-04-25T10:49:30;101475.91;;;12.52
66113;BMP280;52893;52.870;5.822;2023-04-25T10:52:25;101478.81;;;12.64
66113;BMP280;52893;52.870;5.822;2023-04-25T10:54:55;101483.22;;;13.12
66113;BMP280;52893;52.870;5.822;2023-04-25T10:57:36;101478.94;;;13.40
66113;BMP280;52893;52.870;5.822;2023-04-25T11:00:12;101473.47;;;13.98
66113;BMP280;52893;52.870;5.822;2023-04-25T11:02:41;101479.09;;;14.43
66113;BMP280;52893;52.870;5.822;2023-04-25T11:05:17;101477.97;;;14.77
66113;BMP280;52893;52.870;5.822;2023-04-25T11:07:50;101483.09;;;14.67
66113;BMP280;52893;52.870;5.822;2023-04-25T11:10:19;101478.84;;;14.16
66113;BMP280;52893;52.870;5.822;2023-04-25T11:12:46;101500.09;;;13.31
66113;BMP280;52893;52.870;5.822;2023-04-25T11:15:14;101497.84;;;12.52
66113;BMP280;52893;52.870;5.822;2023-04-25T11:17:41;101506.13;;;11.95
66113;BMP280;52893;52.870;5.822;2023-04-25T11:20:10;101502.91;;;11.54
66113;BMP280;52893;52.870;5.822;2023-04-25T11:22:40;101514.72;;;11.72
66113;BMP280;52893;52.870;5.822;2023-04-25T11:25:08;101497.00;;;12.34
66113;BMP280;52893;52.870;5.822;2023-04-25T11:27:50;101509.25;;;12.88
66113;BMP280;52893;52.870;5.822;2023-04-25T11:30:18;101515.41;;;12.77
66113;BMP280;52893;52.870;5.822;2023-04-25T11:32:46;101518.59;;;12.44
66113;BMP280;52893;52.870;5.822;2023-04-25T11:35:13;101523.50;;;11.99
66113;BMP280;52893;52.870;5.822;2023-04-25T11:37:41;101517.44;;;11.63
66113;BMP280;52893;52.870;5.822;2023-04-25T11:40:10;101528.00;;;11.95
66113;BMP280;52893;52.870;5.822;2023-04-25T11:42:43;101534.88;;;12.41
66113;BMP280;52893;52.870;5.822;2023-04-25T11:45:10;101546.16;;;12.56
66113;BMP280;52893;52.870;5.822;2023-04-25T11:47:37;101538.88;;;12.26
66113;BMP280;52893;52.870;5.822;2023-04-25T11:50:07;101547.59;;;11.80
66113;BMP280;52893;52.870;5.822;2023-04-25T11:52:41;101516.84;;;11.44
66113;BMP280;52893;52.870;5.822;2023-04-25T11:55:10;101536.22;;;11.87
66113;BMP280;52893;52.870;5.822;2023-04-25T11:57:41;101525.28;;;11.87
66113;BMP280;52893;52.870;5.822;2023-04-25T12:00:10;101533.00;;;11.93
66113;BMP280;52893;52.870;5.822;2023-04-25T12:02:42;101530.19;;;12.24
66113;BMP280;52893;52.870;5.822;2023-04-25T12:05:11;101518.94;;;12.51
66113;BMP280;52893;52.870;5.822;2023-04-25T12:07:38;101536.31;;;13.07
66113;BMP280;52893;52.870;5.822;2023-04-25T12:10:07;101524.06;;;13.51
66113;BMP280;52893;52.870;5.822;2023-04-25T12:12:36;101509.81;;;13.75
66113;BMP280;52893;52.870;5.822;2023-04-25T12:15:13;101535.84;;;13.89
66113;BMP280;52893;52.870;5.822;2023-04-25T12:17:42;101544.34;;;14.26
66113;BMP280;52893;52.870;5.822;2023-04-25T12:20:10;101537.44;;;14.82
66113;BMP280;52893;52.870;5.822;2023-04-25T12:22:40;101538.03;;;14.87
66113;BMP280;52893;52.870;5.822;2023-04-25T12:25:10;101542.81;;;14.37
66113;BMP280;52893;52.870;5.822;2023-04-25T12:27:38;101539.50;;;14.02
66113;BMP280;52893;52.870;5.822;2023-04-25T12:30:08;101542.00;;;14.36
66113;BMP280;52893;52.870;5.822;2023-04-25T12:32:38;101551.22;;;14.40
66113;BMP280;52893;52.870;5.822;2023-04-25T12:35:06;101541.56;;;14.34
66113;BMP280;52893;52.870;5.822;2023-04-25T12:37:33;101551.06;;;14.58
66113;BMP280;52893;52.870;5.822;2023-04-25T12:40:01;101556.28;;;14.71
66113;BMP280;52893;52.870;5.822;2023-04-25T12:42:30;101556.31;;;14.42
66113;BMP280;52893;52.870;5.822;2023-04-25T12:44:57;101566.53;;;13.91
66113;BMP280;52893;52.870;5.822;2023-04-25T12:47:25;101556.09;;;13.30
66113;BMP280;52893;52.870;5.822;2023-04-25T12:49:53;101570.31;;;13.15
66113;BMP280;52893;52.870;5.822;2023-04-25T12:52:21;101569.06;;;12.69
66113;BMP280;52893;52.870;5.822;2023-04-25T12:54:48;101581.16;;;12.03
66113;BMP280;52893;52.870;5.822;2023-04-25T12:57:15;101584.41;;;11.43
66113;BMP280;52893;52.870;5.822;2023-04-25T12:59:42;101596.84;;;10.91
66113;BMP280;52893;52.870;5.822;2023-04-25T13:02:09;101610.16;;;10.30
66113;BMP280;52893;52.870;5.822;2023-04-25T13:04:36;101614.44;;;9.76
66113;BMP280;52893;52.870;5.822;2023-04-25T13:07:05;101600.44;;;9.50
66113;BMP280;52893;52.870;5.822;2023-04-25T13:09:32;101585.22;;;9.30
66113;BMP280;52893;52.870;5.822;2023-04-25T13:11:59;101590.94;;;9.29
66113;BMP280;52893;52.870;5.822;2023-04-25T13:14:27;101591.31;;;9.41
66113;BMP280;52893;52.870;5.822;2023-04-25T13:16:54;101586.41;;;9.57
66113;BMP280;52893;52.870;5.822;2023-04-25T13:19:22;101591.59;;;9.72
66113;BMP280;52893;52.870;5.822;2023-04-25T13:21:49;101592.34;;;9.91
66113;BMP280;52893;52.870;5.822;2023-04-25T13:24:17;101587.56;;;10.15
66113;BMP280;52893;52.870;5.822;2023-04-25T13:26:44;101581.97;;;10.34
66113;BMP280;52893;52.870;5.822;2023-04-25T13:29:12;101590.31;;;10.65
66113;BMP280;52893;52.870;5.822;2023-04-25T13:31:39;101593.34;;;10.77
66113;BMP280;52893;52.870;5.822;2023-04-25T13:34:06;101610.44;;;10.69
66113;BMP280;52893;52.870;5.822;2023-04-25T13:36:33;101605.81;;;10.56
66113;BMP280;52893;52.870;5.822;2023-04-25T13:39:00;101592.16;;;10.42
66113;BMP280;52893;52.870;5.822;2023-04-25T13:41:31;101605.31;;;10.54
66113;BMP280;52893;52.870;5.822;2023-04-25T13:43:58;101607.19;;;10.67
66113;BMP280;52893;52.870;5.822;2023-04-25T13:46:26;101596.41;;;10.98
66113;BMP280;52893;52.870;5.822;2023-04-25T13:48:53;101603.34;;;11.40
66113;BMP280;52893;52.870;5.822;2023-04-25T13:51:21;101604.53;;;11.78
66113;BMP280;52893;52.870;5.822;2023-04-25T13:53:48;101601.69;;;12.23
66113;BMP280;52893;52.870;5.822;2023-04-25T13:56:15;101595.31;;;12.53
66113;BMP280;52893;52.870;5.822;2023-04-25T13:58:44;101606.44;;;12.56
66113;BMP280;52893;52.870;5.822;2023-04-25T14:01:11;101624.69;;;12.22
66113;BMP280;52893;52.870;5.822;2023-04-25T14:03:38;101631.47;;;11.40
66113;BMP280;52893;52.870;5.822;2023-04-25T14:06:07;101617.16;;;10.63
66113;BMP280;52893;52.870;5.822;2023-04-25T14:08:34;101614.09;;;10.10
66113;BMP280;52893;52.870;5.822;2023-04-25T14:11:02;101593.69;;;9.80
66113;BMP280;52893;52.870;5.822;2023-04-25T14:13:29;101614.66;;;9.93
66113;BMP280;52893;52.870;5.822;2023-04-25T14:16:00;101616.25;;;10.54
66113;BMP280;52893;52.870;5.822;2023-04-25T14:18:28;101604.38;;;11.08
66113;BMP280;52893;52.870;5.822;2023-04-25T14:20:56;101607.03;;;11.66
66113;BMP280;52893;52.870;5.822;2023-04-25T14:23:24;101601.44;;;12.10
66113;BMP280;52893;52.870;5.822;2023-04-25T14:25:51;101615.38;;;12.23
66113;BMP280;52893;52.870;5.822;2023-04-25T14:28:19;101616.59;;;12.17
66113;BMP280;52893;52.870;5.822;2023-04-25T14:30:46;101602.59;;;12.18
66113;BMP280;52893;52.870;5.822;2023-04-25T14:33:15;101629.03;;;12.14
66113;BMP280;52893;52.870;5.822;2023-04-25T14:35:42;101605.22;;;12.23
66113;BMP280;52893;52.870;5.822;2023-04-25T14:38:09;101617.88;;;12.50
66113;BMP280;52893;52.870;5.822;2023-04-25T14:40:36;101624.00;;;12.73
66113;BMP280;52893;52.870;5.822;2023-04-25T14:43:04;101621.44;;;12.93
66113;BMP280;52893;52.870;5.822;2023-04-25T14:45:33;101641.56;;;12.63
66113;BMP280;52893;52.870;5.822;2023-04-25T14:48:00;101639.69;;;12.24
66113;BMP280;52893;52.870;5.822;2023-04-25T14:50:29;101651.47;;;11.94
66113;BMP280;52893;52.870;5.822;2023-04-25T14:52:56;101654.28;;;11.58
66113;BMP280;52893;52.870;5.822;2023-04-25T14:55:24;101642.97;;;11.29
66113;BMP280;52893;52.870;5.822;2023-04-25T14:57:52;101652.25;;;11.05
66113;BMP280;52893;52.870;5.822;2023-04-25T15:00:20;101652.59;;;10.90
66113;BMP280;52893;52.870;5.822;2023-04-25T15:02:48;101652.09;;;10.88
66113;BMP280;52893;52.870;5.822;2023-04-25T15:05:15;101642.78;;;10.76
66113;BMP280;52893;52.870;5.822;2023-04-25T15:07:45;101643.91;;;10.88
66113;BMP280;52893;52.870;5.822;2023-04-25T15:10:13;101650.47;;;11.01
66113;BMP280;52893;52.870;5.822;2023-04-25T15:12:42;101656.16;;;11.27
66113;BMP280;52893;52.870;5.822;2023-04-25T15:15:10;101653.28;;;11.54
66113;BMP280;52893;52.870;5.822;2023-04-25T15:17:38;101653.84;;;11.87
66113;BMP280;52893;52.870;5.822;2023-04-25T15:20:06;101656.22;;;11.88
66113;BMP280;52893;52.870;5.822;2023-04-25T15:22:35;101666.97;;;11.76
66113;BMP280;52893;52.870;5.822;2023-04-25T15:25:05;101666.78;;;11.50
66113;BMP280;52893;52.870;5.822;2023-04-25T15:27:33;101667.38;;;11.25
66113;BMP280;52893;52.870;5.822;2023-04-25T15:30:04;101672.91;;;11.11
66113;BMP280;52893;52.870;5.822;2023-04-25T15:32:33;101662.78;;;10.98
66113;BMP280;52893;52.870;5.822;2023-04-25T15:35:03;101663.22;;;10.92
66113;BMP280;52893;52.870;5.822;2023-04-25T15:37:30;101650.66;;;11.04
66113;BMP280;52893;52.870;5.822;2023-04-25T15:40:01;101650.16;;;11.25
66113;BMP280;52893;52.870;5.822;2023-04-25T15:42:30;101655.41;;;11.79
66113;BMP280;52893;52.870;5.822;2023-04-25T15:44:58;101656.31;;;12.36